createdAt,value
2023-03-26T00:00:45.564Z,63558.08
2023-03-26T00:01:47.513Z,63558.39
2023-03-26T00:02:49.987Z,63523.55
2023-03-26T00:03:53.353Z,63543.04
2023-03-26T00:04:55.370Z,63525.61
2023-03-26T00:06:03.129Z,63538.66
2023-03-26T00:07:06.458Z,63540.96
2023-03-26T00:08:09.610Z,63519.77
2023-03-26T00:09:11.506Z,63526.71
2023-03-26T00:10:13.683Z,63552.24
2023-03-26T00:11:17.520Z,63520.03
2023-03-26T00:12:19.490Z,63518.92
2023-03-26T00:13:22.859Z,63523.32
2023-03-26T00:14:27.336Z,63540.05
2023-03-26T00:15:30.987Z,63533.73
2023-03-26T00:16:33.733Z,63526.48
2023-03-26T00:17:36.430Z,63535.55
2023-03-26T00:18:39.556Z,63505.22
2023-03-26T00:19:41.456Z,63538.54
2023-03-26T00:20:43.645Z,63534.14
2023-03-26T00:21:46.602Z,63530.31
2023-03-26T00:22:49.897Z,63517.82
2023-03-26T00:23:51.844Z,63527.02
2023-03-26T00:24:54.677Z,63507.71
2023-03-26T00:25:57.246Z,63512.34
2023-03-26T00:26:59.237Z,63531.52
2023-03-26T00:28:02.101Z,63529.23
2023-03-26T00:29:07.209Z,63536.46
2023-03-26T00:30:11.372Z,63519.05
2023-03-26T00:31:15.253Z,63521.67
2023-03-26T00:32:17.783Z,63527.69
2023-03-26T00:33:19.660Z,63519.77
2023-03-26T00:34:22.465Z,63541.93
2023-03-26T00:35:24.373Z,63501.93
2023-03-26T00:36:26.923Z,63522.09
2023-03-26T00:37:30.212Z,63521.11
2023-03-26T00:38:32.324Z,63514.86
2023-03-26T00:39:34.998Z,63520.03
2023-03-26T00:40:39.567Z,63526.35
2023-03-26T00:41:43.475Z,63511.26
2023-03-26T00:42:45.695Z,63504.55
2023-03-26T00:43:50.346Z,63494.81
2023-03-26T00:44:52.340Z,63503.04
2023-03-26T00:45:54.999Z,63504.12
2023-03-26T00:46:59.757Z,63524.16
2023-03-26T00:48:02.762Z,63499.08
2023-03-26T00:49:05.102Z,63513.01
2023-03-26T00:50:08.416Z,63518.79
2023-03-26T00:51:12.284Z,63499.20
2023-03-26T00:52:17.447Z,63526.61
2023-03-26T00:53:19.427Z,63531.11
2023-03-26T00:54:21.404Z,63513.14
2023-03-26T00:55:24.491Z,63517.95
2023-03-26T00:56:28.686Z,63536.22
2023-03-26T00:57:35.853Z,63509.72
2023-03-26T00:58:36.712Z,63538.41
2023-03-26T00:59:40.452Z,63509.92
2023-03-26T01:00:51.208Z,63526.17
2023-03-26T01:01:53.208Z,63521.98
2023-03-26T01:02:55.287Z,63509.05
2023-03-26T01:04:08.964Z,63519.23
2023-03-26T01:05:25.090Z,63529.87
2023-03-26T01:06:30.526Z,63521.41
2023-03-26T01:07:32.807Z,63528.23
2023-03-26T01:08:44.393Z,63517.58
2023-03-26T01:09:48.220Z,63524.40
2023-03-26T01:10:52.452Z,63535.12
2023-03-26T01:11:59.430Z,63529.34
2023-03-26T01:13:01.374Z,63515.09
2023-03-26T01:14:11.719Z,63541.93
2023-03-26T01:15:13.719Z,63543.27
2023-03-26T01:16:26.004Z,63539.08
2023-03-26T01:17:31.176Z,63528.79
2023-03-26T01:18:34.237Z,63521.54
2023-03-26T01:19:41.086Z,63521.54
2023-03-26T01:20:45.720Z,63532.09
2023-03-26T01:21:48.322Z,63545.66
2023-03-26T01:22:53.985Z,63541.52
2023-03-26T01:24:02.020Z,63529.46
2023-03-26T01:25:05.033Z,63542.27
2023-03-26T01:26:25.976Z,63534.71
2023-03-26T01:27:43.786Z,63535.37
2023-03-26T01:28:46.027Z,63524.40
2023-03-26T01:31:44.049Z,63544.14
2023-03-26T01:32:55.949Z,63550.16
2023-03-26T01:34:02.430Z,63537.43
2023-03-26T01:35:35.118Z,63553.04
2023-03-26T01:36:57.756Z,63536.46
2023-03-26T01:38:20.204Z,63554.32
2023-03-26T01:41:22.109Z,63546.46
2023-03-26T01:42:33.410Z,63546.77
2023-03-26T01:43:50.632Z,63551.57
2023-03-26T01:44:59.304Z,63562.66
2023-03-26T01:46:05.022Z,63542.37
2023-03-26T01:47:10.202Z,63564.74
2023-03-26T01:48:13.375Z,63559.49
2023-03-26T01:49:18.867Z,63568.03
2023-03-26T01:50:21.243Z,63568.80
2023-03-26T01:51:30.202Z,63562.35
2023-03-26T01:52:33.407Z,63551.81
2023-03-26T01:53:39.094Z,63555.10
2023-03-26T01:54:41.800Z,63534.14
2023-03-26T01:55:56.764Z,63552.91
2023-03-26T01:57:05.591Z,63557.72
2023-03-26T01:58:11.314Z,63558.39
2023-03-26T01:59:34.039Z,63547.97
2023-03-26T02:00:46.006Z,63556.75
2023-03-26T02:02:05.272Z,63550.05
2023-03-26T02:03:14.344Z,63562.12
2023-03-26T02:04:32.506Z,63563.45
2023-03-26T02:05:53.808Z,63552.12
2023-03-26T02:07:06.102Z,63559.06
2023-03-26T02:08:21.599Z,63556.31
2023-03-26T02:09:27.397Z,63557.72
2023-03-26T02:10:35.657Z,63564.97
2023-03-26T02:11:40.626Z,63573.20
2023-03-26T02:12:43.927Z,63554.02
2023-03-26T02:13:46.664Z,63546.33
2023-03-26T02:14:48.845Z,63556.64
2023-03-26T02:15:59.369Z,63554.87
2023-03-26T02:17:01.567Z,63557.54
2023-03-26T02:18:03.722Z,63580.09
2023-03-26T02:19:06.497Z,63573.74
2023-03-26T02:20:12.406Z,63553.58
2023-03-26T02:21:20.646Z,63551.03
2023-03-26T02:22:22.813Z,63545.89
2023-03-26T02:23:24.672Z,63556.08
2023-03-26T02:24:27.099Z,63555.54
2023-03-26T02:25:31.045Z,63512.91
2023-03-26T02:26:36.270Z,63552.24
2023-03-26T02:27:40.687Z,63545.48
2023-03-26T02:28:42.716Z,63547.85
2023-03-26T02:29:44.566Z,63564.74
2023-03-26T02:30:46.576Z,63570.58
2023-03-26T02:31:50.083Z,63581.43
2023-03-26T02:32:53.541Z,63565.64
2023-03-26T02:33:56.300Z,63583.07
2023-03-26T02:34:58.317Z,63595.45
2023-03-26T02:36:01.259Z,63585.93
2023-03-26T02:37:05.137Z,63567.05
2023-03-26T02:38:07.129Z,63564.97
2023-03-26T02:39:10.045Z,63555.54
2023-03-26T02:40:12.537Z,63575.26
2023-03-26T02:41:15.034Z,63567.16
2023-03-26T02:42:17.838Z,63580.32
2023-03-26T02:43:19.976Z,63584.60
2023-03-26T02:44:21.819Z,63584.70
2023-03-26T02:45:23.716Z,63589.10
2023-03-26T02:46:26.923Z,63590.31
2023-03-26T02:47:30.193Z,63597.33
2023-03-26T02:48:33.527Z,63603.79
2023-03-26T02:49:35.577Z,63599.23
2023-03-26T02:50:38.071Z,63596.22
2023-03-26T02:51:39.970Z,63596.22
2023-03-26T02:52:42.612Z,63603.79
2023-03-26T02:53:44.899Z,63589.41
2023-03-26T02:54:46.930Z,63591.29
2023-03-26T02:55:50.018Z,63586.91
2023-03-26T02:56:53.277Z,63591.18
2023-03-26T02:57:58.225Z,63590.62
2023-03-26T02:59:00.528Z,63588.55
2023-03-26T03:00:04.223Z,63582.95
2023-03-26T03:01:07.898Z,63569.68
2023-03-26T03:02:12.533Z,63555.66
2023-03-26T03:03:14.544Z,63548.28
2023-03-26T03:04:17.491Z,63552.91
2023-03-26T03:05:19.922Z,63553.45
2023-03-26T03:06:23.400Z,63552.91
2023-03-26T03:07:25.625Z,63559.80
2023-03-26T03:08:27.880Z,63548.52
2023-03-26T03:09:30.686Z,63554.32
2023-03-26T03:10:32.764Z,63547.97
2023-03-26T03:11:34.946Z,63523.73
2023-03-26T03:12:37.945Z,63524.40
2023-03-26T03:13:40.233Z,63525.50
2023-03-26T03:14:42.411Z,63501.39
2023-03-26T03:15:44.395Z,63508.51
2023-03-26T03:16:47.775Z,63503.58
2023-03-26T03:17:52.182Z,63503.04
2023-03-26T03:18:58.102Z,63504.68
2023-03-26T03:20:00.359Z,63513.88
2023-03-26T03:21:06.040Z,63511.80
2023-03-26T03:22:07.953Z,63507.54
2023-03-26T03:23:10.829Z,63515.40
2023-03-26T03:24:12.705Z,63513.99
2023-03-26T03:25:15.309Z,63511.26
2023-03-26T03:26:22.131Z,63517.15
2023-03-26T03:27:24.068Z,63501.93
2023-03-26T03:28:25.993Z,63482.09
2023-03-26T03:29:31.073Z,63482.09
2023-03-26T03:30:33.834Z,63495.35
2023-03-26T03:31:35.724Z,63491.29
2023-03-26T03:32:38.276Z,63471.79
2023-03-26T03:33:40.732Z,63486.05
2023-03-26T03:34:42.919Z,63500.29
2023-03-26T03:35:45.590Z,63508.82
2023-03-26T03:36:48.892Z,63491.52
2023-03-26T03:37:50.752Z,63503.14
2023-03-26T03:38:52.722Z,63518.14
2023-03-26T03:39:54.613Z,63515.94
2023-03-26T03:40:56.807Z,63502.47
2023-03-26T03:41:59.040Z,63501.82
2023-03-26T03:43:01.080Z,63504.45
2023-03-26T03:44:03.156Z,63515.94
2023-03-26T03:45:06.731Z,63512.11
2023-03-26T03:46:08.834Z,63518.69
2023-03-26T03:47:12.111Z,63518.69
2023-03-26T03:48:14.133Z,63512.91
2023-03-26T03:49:16.018Z,63505.22
2023-03-26T03:50:18.112Z,63494.14
2023-03-26T03:51:20.283Z,63503.04
2023-03-26T03:52:22.630Z,63503.04
2023-03-26T03:53:27.769Z,63502.47
2023-03-26T03:54:29.796Z,63509.48
2023-03-26T03:55:31.832Z,63506.20
2023-03-26T03:56:33.930Z,63502.37
2023-03-26T03:57:35.880Z,63503.58
2023-03-26T03:58:37.869Z,63510.16
2023-03-26T03:59:47.567Z,63512.65
2023-03-26T04:00:43.752Z,63494.81
2023-03-26T04:01:45.678Z,63503.58
2023-03-26T04:02:47.903Z,63503.70
2023-03-26T04:03:50.515Z,63502.47
2023-03-26T04:04:52.711Z,63487.56
2023-03-26T04:05:55.706Z,63491.39
2023-03-26T04:06:58.048Z,63491.96
2023-03-26T04:08:01.443Z,63505.09
2023-03-26T04:09:06.238Z,63499.85
2023-03-26T04:10:13.902Z,63508.82
2023-03-26T04:11:15.921Z,63507.41
2023-03-26T04:12:17.901Z,63500.83
2023-03-26T04:13:19.775Z,63499.62
2023-03-26T04:14:21.637Z,63505.66
2023-03-26T04:15:23.514Z,63504.01
2023-03-26T04:16:26.139Z,63508.38
2023-03-26T04:17:28.339Z,63505.22
2023-03-26T04:18:30.363Z,63497.00
2023-03-26T04:19:33.210Z,63494.81
2023-03-26T04:20:38.085Z,63482.76
2023-03-26T04:21:41.382Z,63489.34
2023-03-26T04:22:43.783Z,63487.13
2023-03-26T04:23:45.764Z,63488.23
2023-03-26T04:24:51.103Z,63491.52
2023-03-26T04:25:54.902Z,63491.52
2023-03-26T04:26:57.352Z,63479.47
2023-03-26T04:28:02.538Z,63480.01
2023-03-26T04:29:08.146Z,63480.68
2023-03-26T04:30:14.120Z,63488.12
2023-03-26T04:31:22.312Z,63492.93
2023-03-26T04:32:27.724Z,63485.61
2023-03-26T04:33:32.145Z,63493.04
2023-03-26T04:34:34.056Z,63485.61
2023-03-26T04:35:36.163Z,63477.29
2023-03-26T04:36:38.984Z,63486.05
2023-03-26T04:37:43.147Z,63497.20
2023-03-26T04:38:46.478Z,63492.62
2023-03-26T04:39:50.661Z,63492.07
2023-03-26T04:40:53.280Z,63499.20
2023-03-26T04:41:57.214Z,63501.93
2023-03-26T04:42:59.523Z,63497.43
2023-03-26T04:44:01.380Z,63504.45
2023-03-26T04:45:05.138Z,63470.58
2023-03-26T04:46:10.893Z,63480.32
2023-03-26T04:47:13.207Z,63489.34
2023-03-26T04:48:15.652Z,63481.11
2023-03-26T04:49:19.040Z,63471.14
2023-03-26T04:50:22.236Z,63481.42
2023-03-26T04:51:26.878Z,63482.76
2023-03-26T04:52:31.554Z,63482.99
2023-03-26T04:53:34.748Z,63503.88
2023-03-26T04:54:38.227Z,63494.68
2023-03-26T04:55:59.177Z,63492.37
2023-03-26T04:57:06.929Z,63493.71
2023-03-26T04:58:09.368Z,63500.29
2023-03-26T04:59:16.240Z,63506.20
2023-03-26T05:00:20.765Z,63509.92
2023-03-26T05:01:23.572Z,63493.71
2023-03-26T05:02:25.924Z,63493.84
2023-03-26T05:03:28.027Z,63513.88
2023-03-26T05:04:31.156Z,63519.36
2023-03-26T05:05:33.314Z,63521.11
2023-03-26T05:06:35.264Z,63528.23
2023-03-26T05:07:37.604Z,63512.78
2023-03-26T05:08:39.992Z,63512.78
2023-03-26T05:09:43.266Z,63494.81
2023-03-26T05:10:45.363Z,63514.96
2023-03-26T05:11:47.254Z,63527.02
2023-03-26T05:12:50.332Z,63528.12
2023-03-26T05:13:53.728Z,63522.75
2023-03-26T05:14:57.211Z,63521.41
2023-03-26T05:15:59.157Z,63536.22
2023-03-26T05:17:03.740Z,63536.46
2023-03-26T05:18:05.720Z,63545.66
2023-03-26T05:19:08.011Z,63544.68
2023-03-26T05:20:22.615Z,63538.54
2023-03-26T05:21:24.791Z,63552.68
2023-03-26T05:22:27.736Z,63554.02
2023-03-26T05:23:29.618Z,63504.12
2023-03-26T05:24:31.567Z,63505.22
2023-03-26T05:25:33.872Z,63483.06
2023-03-26T05:26:36.013Z,63512.78
2023-03-26T05:27:38.428Z,63530.75
2023-03-26T05:28:40.808Z,63484.94
2023-03-26T05:29:43.349Z,63513.75
2023-03-26T05:30:46.834Z,63518.92
2023-03-26T05:31:49.253Z,63520.44
2023-03-26T05:32:51.187Z,63524.84
2023-03-26T05:33:53.325Z,63530.31
2023-03-26T05:34:55.375Z,63528.23
2023-03-26T05:36:06.590Z,63538.54
2023-03-26T05:37:08.514Z,63540.31
2023-03-26T05:38:11.358Z,63546.87
2023-03-26T05:39:13.245Z,63549.39
2023-03-26T05:40:15.434Z,63531.52
2023-03-26T05:41:22.429Z,63533.73
2023-03-26T05:42:26.180Z,63546.09
2023-03-26T05:43:29.517Z,63525.94
2023-03-26T05:44:31.435Z,63535.79
2023-03-26T05:45:33.836Z,63527.15
2023-03-26T05:46:36.126Z,63543.58
2023-03-26T05:47:38.298Z,63552.68
2023-03-26T05:48:41.433Z,63535.37
2023-03-26T05:49:43.671Z,63529.23
2023-03-26T05:50:51.211Z,63541.93
2023-03-26T05:51:55.040Z,63549.49
2023-03-26T05:52:59.195Z,63534.04
2023-03-26T05:54:01.117Z,63550.73
2023-03-26T05:55:05.743Z,63557.61
2023-03-26T05:56:09.299Z,63550.47
2023-03-26T05:57:11.225Z,63564.30
2023-03-26T05:58:13.260Z,63531.52
2023-03-26T05:59:15.265Z,63548.52
2023-03-26T06:00:20.174Z,63551.81
2023-03-26T06:01:22.404Z,63555.54
2023-03-26T06:02:24.335Z,63540.85
2023-03-26T06:03:26.400Z,63558.82
2023-03-26T06:04:29.117Z,63525.27
2023-03-26T06:05:34.212Z,63512.34
2023-03-26T06:06:36.242Z,63520.03
2023-03-26T06:07:38.170Z,63540.85
2023-03-26T06:08:43.807Z,63504.55
2023-03-26T06:09:47.471Z,63476.61
2023-03-26T06:10:49.867Z,63511.67
2023-03-26T06:11:51.780Z,63533.60
2023-03-26T06:12:53.667Z,63544.68
2023-03-26T06:13:55.602Z,63550.16
2023-03-26T06:14:58.833Z,63565.41
2023-03-26T06:16:02.239Z,63548.52
2023-03-26T06:17:06.865Z,63553.04
2023-03-26T06:18:08.948Z,63545.79
2023-03-26T06:19:11.952Z,63517.95
2023-03-26T06:20:16.269Z,63517.95
2023-03-26T06:21:18.151Z,63541.83
2023-03-26T06:22:20.070Z,63545.35
2023-03-26T06:23:22.463Z,63522.65
2023-03-26T06:24:26.551Z,63529.64
2023-03-26T06:25:28.485Z,63544.68
2023-03-26T06:26:30.434Z,63544.99
2023-03-26T06:27:32.367Z,63570.45
2023-03-26T06:28:34.367Z,63586.24
2023-03-26T06:29:36.326Z,63597.10
2023-03-26T06:30:38.598Z,63590.20
2023-03-26T06:31:40.913Z,63607.77
2023-03-26T06:32:42.920Z,63598.31
2023-03-26T06:33:45.929Z,63613.48
2023-03-26T06:34:47.951Z,63622.69
2023-03-26T06:35:51.867Z,63624.88
2023-03-26T06:36:55.687Z,63617.75
2023-03-26T06:37:58.389Z,63629.05
2023-03-26T06:39:00.420Z,63595.02
2023-03-26T06:40:07.137Z,63637.28
2023-03-26T06:41:11.080Z,63653.86
2023-03-26T06:42:13.445Z,63602.81
2023-03-26T06:43:15.629Z,63647.04
2023-03-26T06:44:17.744Z,63586.91
2023-03-26T06:45:19.610Z,63588.87
2023-03-26T06:46:21.754Z,63592.93
2023-03-26T06:47:23.869Z,63618.73
2023-03-26T06:48:26.003Z,63626.53
2023-03-26T06:49:28.247Z,63609.96
2023-03-26T06:50:30.229Z,63605.98
2023-03-26T06:51:32.180Z,63607.33
2023-03-26T06:52:34.026Z,63590.75
2023-03-26T06:53:35.964Z,63624.23
2023-03-26T06:54:38.284Z,63664.15
2023-03-26T06:55:40.234Z,63699.52
2023-03-26T06:56:42.313Z,63719.83
2023-03-26T06:57:50.474Z,63700.06
2023-03-26T06:58:52.413Z,63714.66
2023-03-26T06:59:54.388Z,63766.72
2023-03-26T07:00:56.748Z,63792.24
2023-03-26T07:02:01.346Z,63813.53
2023-03-26T07:03:07.562Z,63799.92
2023-03-26T07:04:10.790Z,63754.86
2023-03-26T07:05:13.533Z,63737.94
2023-03-26T07:06:15.810Z,63685.00
2023-03-26T07:07:17.656Z,63707.63
2023-03-26T07:08:21.431Z,63759.80
2023-03-26T07:09:24.372Z,63772.87
2023-03-26T07:10:26.362Z,63753.88
2023-03-26T07:11:29.485Z,63788.27
2023-03-26T07:12:31.623Z,63755.53
2023-03-26T07:13:35.589Z,63736.19
2023-03-26T07:14:37.865Z,63719.94
2023-03-26T07:15:39.721Z,63670.97
2023-03-26T07:16:41.775Z,63679.10
2023-03-26T07:17:43.792Z,63678.23
2023-03-26T07:18:45.710Z,63738.82
2023-03-26T07:19:47.586Z,63744.43
2023-03-26T07:20:53.818Z,63746.74
2023-03-26T07:21:56.581Z,63758.70
2023-03-26T07:23:01.620Z,63793.89
2023-03-26T07:24:04.860Z,63756.39
2023-03-26T07:25:08.712Z,63775.21
2023-03-26T07:26:29.562Z,63819.71
2023-03-26T07:28:04.349Z,63844.97
2023-03-26T07:29:23.619Z,63841.80
2023-03-26T07:30:45.881Z,63834.11
2023-03-26T07:31:51.716Z,63797.95
2023-03-26T07:32:57.584Z,63872.03
2023-03-26T07:34:09.485Z,63844.31
2023-03-26T07:35:27.683Z,63855.98
2023-03-26T07:36:42.374Z,63820.79
2023-03-26T07:37:54.291Z,63884.00
2023-03-26T07:40:48.211Z,63923.73
2023-03-26T07:42:01.820Z,63808.16
2023-03-26T07:43:16.466Z,63806.52
2023-03-26T07:44:29.372Z,63879.72
2023-03-26T07:45:40.367Z,63832.66
2023-03-26T07:46:44.243Z,63824.09
2023-03-26T07:47:47.218Z,63859.70
2023-03-26T07:48:52.948Z,63890.93
2023-03-26T07:49:55.899Z,63886.64
2023-03-26T07:50:59.659Z,63844.65
2023-03-26T07:52:02.456Z,63884.55
2023-03-26T07:53:05.136Z,63870.26
2023-03-26T07:54:10.295Z,63899.95
2023-03-26T07:55:14.821Z,63935.71
2023-03-26T07:56:20.918Z,63939.02
2023-03-26T07:57:33.405Z,63874.33
2023-03-26T07:58:45.221Z,63865.54
2023-03-26T08:01:13.469Z,63890.83
2023-03-26T08:02:31.510Z,63901.27
2023-03-26T08:04:24.903Z,63869.16
2023-03-26T08:05:26.377Z,63936.92
2023-03-26T08:06:35.387Z,63985.35
2023-03-26T08:08:08.002Z,63897.75
2023-03-26T08:09:25.865Z,63912.04
2023-03-26T08:10:58.818Z,63869.16
2023-03-26T08:12:19.842Z,63900.51
2023-03-26T08:13:29.768Z,63884.55
2023-03-26T08:14:42.227Z,63925.27
2023-03-26T08:15:54.215Z,63910.07
2023-03-26T08:17:16.688Z,63907.65
2023-03-26T08:18:58.066Z,63902.16
2023-03-26T08:20:21.745Z,63908.32
2023-03-26T08:21:27.678Z,63880.71
2023-03-26T08:22:36.091Z,63857.30
2023-03-26T08:23:58.063Z,63872.03
2023-03-26T08:25:15.771Z,63913.15
2023-03-26T08:26:36.437Z,63858.17
2023-03-26T08:27:42.220Z,63892.48
2023-03-26T08:28:48.829Z,63914.68
2023-03-26T08:29:57.503Z,63910.39
2023-03-26T08:31:01.037Z,63822.44
2023-03-26T08:32:06.574Z,63818.06
2023-03-26T08:33:18.891Z,63822.99
2023-03-26T08:34:21.204Z,63846.20
2023-03-26T08:35:25.717Z,63881.25
2023-03-26T08:36:27.981Z,63891.15
2023-03-26T08:37:29.888Z,63855.54
2023-03-26T08:38:31.750Z,63881.49
2023-03-26T08:39:33.622Z,63857.73
2023-03-26T08:41:01.541Z,63864.77
2023-03-26T08:42:18.919Z,63826.85
2023-03-26T08:43:36.504Z,63846.08
2023-03-26T08:44:48.056Z,63815.30
2023-03-26T08:45:55.490Z,63859.94
2023-03-26T08:47:01.249Z,63865.31
2023-03-26T08:49:39.651Z,63940.89
2023-03-26T08:50:58.010Z,63938.47
2023-03-26T08:52:21.937Z,63961.79
2023-03-26T08:54:02.886Z,63958.27
2023-03-26T08:55:31.169Z,63967.51
2023-03-26T08:57:01.831Z,63974.90
2023-03-26T08:58:07.616Z,63916.45
2023-03-26T08:59:45.960Z,63931.65
2023-03-26T09:01:20.688Z,63907.11
2023-03-26T09:02:41.761Z,63929.89
2023-03-26T09:04:22.815Z,63907.11
2023-03-26T09:05:45.422Z,63881.25
2023-03-26T09:07:18.060Z,63886.32
2023-03-26T09:08:32.966Z,63920.20
2023-03-26T09:10:12.381Z,63914.13
2023-03-26T09:11:42.811Z,63924.14
2023-03-26T09:13:23.749Z,63921.40
2023-03-26T09:14:41.187Z,63907.21
2023-03-26T09:15:58.786Z,63946.73
2023-03-26T09:17:30.696Z,63931.43
2023-03-26T09:18:49.492Z,63920.86
2023-03-26T09:20:12.519Z,63897.97
2023-03-26T09:21:38.536Z,63928.02
2023-03-26T09:22:56.111Z,63927.90
2023-03-26T09:24:34.264Z,63906.55
2023-03-26T09:25:56.898Z,63926.37
2023-03-26T09:27:08.920Z,63931.87
2023-03-26T09:28:31.473Z,63918.64
2023-03-26T09:29:56.294Z,63908.74
2023-03-26T09:31:19.941Z,63914.92
2023-03-26T09:32:28.154Z,63933.52
2023-03-26T09:33:42.692Z,63947.94
2023-03-26T09:34:57.530Z,63938.03
2023-03-26T09:36:05.915Z,63955.08
2023-03-26T09:37:26.749Z,63976.87
2023-03-26T09:38:41.301Z,63980.72
2023-03-26T09:39:58.897Z,63955.63
2023-03-26T09:41:22.473Z,63945.74
2023-03-26T09:42:28.140Z,63930.54
2023-03-26T09:43:43.209Z,63980.94
2023-03-26T09:45:07.679Z,63984.24
2023-03-26T09:46:32.584Z,63974.78
2023-03-26T09:48:00.354Z,63914.92
2023-03-26T09:49:25.730Z,63924.82
2023-03-26T09:50:37.463Z,63954.30
2023-03-26T09:51:52.606Z,63911.62
2023-03-26T09:53:17.343Z,63925.93
2023-03-26T09:54:41.422Z,63920.29
2023-03-26T09:56:08.284Z,63906.10
2023-03-26T09:57:42.018Z,63942.44
2023-03-26T09:59:20.030Z,63950.01
2023-03-26T10:00:31.957Z,63941.53
2023-03-26T10:02:05.913Z,63929.68
2023-03-26T10:03:48.101Z,63960.04
2023-03-26T10:04:57.038Z,63996.23
2023-03-26T10:06:30.260Z,63988.41
2023-03-26T10:07:40.864Z,63936.92
2023-03-26T10:10:14.339Z,63967.30
2023-03-26T10:11:28.840Z,63981.38
2023-03-26T10:12:37.051Z,63970.37
2023-03-26T10:14:01.553Z,63959.49
2023-03-26T10:16:23.369Z,63966.20
2023-03-26T10:17:35.446Z,63974.78
2023-03-26T10:19:08.705Z,63987.64
2023-03-26T10:20:30.039Z,63999.65
2023-03-26T10:21:56.879Z,64004.48
2023-03-26T10:23:20.701Z,63993.16
2023-03-26T10:24:32.180Z,63964.32
2023-03-26T10:25:56.702Z,63981.93
2023-03-26T10:27:09.700Z,63951.90
2023-03-26T10:28:30.605Z,63947.49
2023-03-26T10:29:57.400Z,63935.84
2023-03-26T10:31:29.065Z,63882.23
2023-03-26T10:32:40.417Z,63916.99
2023-03-26T10:34:28.591Z,63867.18
2023-03-26T10:35:42.923Z,63868.29
2023-03-26T10:37:12.842Z,63878.51
2023-03-26T10:38:21.563Z,63886.10
2023-03-26T10:39:46.970Z,63896.10
2023-03-26T10:41:20.515Z,63878.07
2023-03-26T10:42:44.816Z,63878.61
2023-03-26T10:44:05.123Z,63884.55
2023-03-26T10:45:22.545Z,63862.57
2023-03-26T10:46:38.679Z,63842.78
2023-03-26T10:48:11.562Z,63863.79
2023-03-26T10:49:31.992Z,63868.07
2023-03-26T10:51:05.562Z,63859.50
2023-03-26T10:52:11.051Z,63852.68
2023-03-26T10:53:26.592Z,63881.69
2023-03-26T10:54:45.153Z,63851.79
2023-03-26T10:57:04.275Z,63897.97
2023-03-26T10:58:10.072Z,63899.52
2023-03-26T10:59:14.206Z,63910.39
2023-03-26T11:00:20.444Z,63892.26
2023-03-26T11:01:48.867Z,63901.17
2023-03-26T11:03:15.066Z,63890.06
2023-03-26T11:04:38.019Z,63899.52
2023-03-26T11:05:52.265Z,63883.24
2023-03-26T11:07:10.273Z,63900.61
2023-03-26T11:08:18.992Z,63874.67
2023-03-26T11:09:44.435Z,63892.48
2023-03-26T11:11:05.206Z,63912.04
2023-03-26T11:12:26.136Z,63899.52
2023-03-26T11:13:47.070Z,63914.48
2023-03-26T11:15:07.588Z,63878.07
2023-03-26T11:16:31.534Z,63887.43
2023-03-26T11:17:49.185Z,63899.95
2023-03-26T11:18:58.103Z,63920.61
2023-03-26T11:20:22.263Z,63913.15
2023-03-26T11:21:30.760Z,63925.93
2023-03-26T11:22:56.060Z,63890.61
2023-03-26T11:24:16.330Z,63886.32
2023-03-26T11:25:39.797Z,63909.85
2023-03-26T11:27:16.035Z,63897.31
2023-03-26T11:28:27.971Z,63898.29
2023-03-26T11:29:50.183Z,63851.13
2023-03-26T11:31:04.926Z,63868.73
2023-03-26T11:33:38.747Z,63837.29
2023-03-26T11:35:04.041Z,63868.61
2023-03-26T11:36:10.988Z,63841.13
2023-03-26T11:37:16.722Z,63813.88
2023-03-26T11:38:22.957Z,63862.57
2023-03-26T11:39:30.971Z,63869.28
2023-03-26T11:40:36.720Z,63890.16
2023-03-26T11:41:39.119Z,63872.58
2023-03-26T11:42:43.558Z,63882.48
2023-03-26T11:43:49.313Z,63894.89
2023-03-26T11:45:04.189Z,63900.19
2023-03-26T11:47:24.105Z,63903.91
2023-03-26T11:48:30.084Z,63902.16
2023-03-26T11:49:32.341Z,63930.76
2023-03-26T11:50:38.490Z,63932.21
2023-03-26T11:51:42.704Z,63948.38
2023-03-26T11:52:45.925Z,63949.46
2023-03-26T11:53:48.997Z,63947.49
2023-03-26T11:54:50.857Z,63950.01
2023-03-26T11:56:13.208Z,63942.32
2023-03-26T11:57:26.925Z,63942.86
2023-03-26T11:58:39.529Z,63974.33
2023-03-26T11:59:58.474Z,63931.87
2023-03-26T12:01:05.253Z,63933.62
2023-03-26T12:02:13.867Z,63945.30
2023-03-26T12:03:16.330Z,63939.68
2023-03-26T12:05:41.889Z,63957.84
2023-03-26T12:06:59.737Z,63964.00
2023-03-26T12:08:07.168Z,63974.90
2023-03-26T12:09:17.910Z,63960.70
2023-03-26T12:10:23.252Z,63957.40
2023-03-26T12:11:30.293Z,63974.33
2023-03-26T12:12:41.100Z,63966.52
2023-03-26T12:13:51.801Z,63961.79
2023-03-26T12:14:54.106Z,63966.64
2023-03-26T12:16:02.882Z,63943.97
2023-03-26T12:17:08.237Z,63916.99
2023-03-26T12:18:20.075Z,63936.26
2023-03-26T12:19:23.078Z,63955.20
2023-03-26T12:20:31.758Z,63979.17
2023-03-26T12:21:46.286Z,63980.94
2023-03-26T12:22:51.512Z,63986.44
2023-03-26T12:24:00.034Z,63991.29
2023-03-26T12:25:14.617Z,63998.99
2023-03-26T12:26:19.674Z,63991.29
2023-03-26T12:27:25.337Z,63990.85
2023-03-26T12:28:32.870Z,63993.82
2023-03-26T12:29:34.861Z,64006.26
2023-03-26T12:30:40.164Z,64000.19
2023-03-26T12:31:51.825Z,63997.45
2023-03-26T12:33:21.137Z,63979.17
2023-03-26T12:34:29.774Z,63981.48
2023-03-26T12:35:34.428Z,63971.03
2023-03-26T12:36:37.319Z,63942.00
2023-03-26T12:37:40.947Z,63942.00
2023-03-26T12:38:42.820Z,63969.28
2023-03-26T12:40:08.988Z,63978.18
2023-03-26T12:41:04.229Z,63978.42
2023-03-26T12:44:48.980Z,63976.65
2023-03-26T12:44:49.730Z,63954.64
2023-03-26T12:44:58.910Z,63991.29
2023-03-26T12:47:54.002Z,64009.56
2023-03-26T12:47:58.828Z,63986.01
2023-03-26T12:48:21.942Z,63942.44
2023-03-26T12:49:24.034Z,63974.33
2023-03-26T12:50:35.649Z,63926.92
2023-03-26T12:51:54.684Z,63935.39
2023-03-26T12:53:30.583Z,63959.37
2023-03-26T12:55:11.920Z,63941.77
2023-03-26T12:56:27.474Z,63941.77
2023-03-26T12:58:44.585Z,63952.57
2023-03-26T12:59:59.385Z,63963.88
2023-03-26T13:01:08.851Z,63923.73
2023-03-26T13:02:27.769Z,63929.23
2023-03-26T13:05:29.753Z,63947.05
2023-03-26T13:06:59.065Z,63916.57
2023-03-26T13:07:45.842Z,63927.46
2023-03-26T13:09:13.562Z,63945.08
2023-03-26T13:10:28.609Z,63962.13
2023-03-26T13:11:43.352Z,63943.10
2023-03-26T13:13:05.850Z,63920.86
2023-03-26T13:14:11.529Z,63947.49
2023-03-26T13:15:23.355Z,63903.47
2023-03-26T13:16:47.690Z,63929.23
2023-03-26T13:18:16.062Z,63915.34
2023-03-26T13:21:32.461Z,63932.54
2023-03-26T13:22:47.236Z,63891.37
2023-03-26T13:24:01.431Z,63924.82
2023-03-26T13:25:26.255Z,63918.22
2023-03-26T13:26:50.006Z,63926.05
2023-03-26T13:27:55.678Z,63950.57
2023-03-26T13:29:02.492Z,63960.80
2023-03-26T13:30:14.605Z,63911.62
2023-03-26T13:31:41.297Z,63910.51
2023-03-26T13:34:16.659Z,63933.20
2023-03-26T13:35:37.598Z,63950.57
2023-03-26T13:37:04.833Z,63962.89
2023-03-26T13:38:16.545Z,63948.92
2023-03-26T13:39:37.793Z,63967.06
2023-03-26T13:40:43.817Z,63943.10
2023-03-26T13:41:58.325Z,63908.98
2023-03-26T13:43:25.088Z,63952.99
2023-03-26T13:45:04.689Z,63978.30
2023-03-26T13:46:11.850Z,63975.44
2023-03-26T13:47:37.132Z,63985.23
2023-03-26T13:48:52.220Z,63947.27
2023-03-26T13:50:06.896Z,63935.39
2023-03-26T13:51:12.584Z,63934.85
2023-03-26T13:52:22.264Z,63946.83